sensor_id;sensor_type;location;lat;lon;timestamp;temperature;humidity
51273;DHT22;37345;59.828;30.328;2022-08-06T00:04:20;21.50;99.90
51273;DHT22;37345;59.828;30.328;2022-08-06T00:06:46;21.60;99.90
51273;DHT22;37345;59.828;30.328;2022-08-06T00:09:12;21.60;99.90
51273;DHT22;37345;59.828;30.328;2022-08-06T00:11:38;21.60;99.90
51273;DHT22;37345;59.828;30.328;2022-08-06T00:21:23;21.80;99.90
51273;DHT22;37345;59.828;30.328;2022-08-06T00:33:34;21.80;99.90
51273;DHT22;37345;59.828;30.328;2022-08-06T00:40:53;21.70;99.90
51273;DHT22;37345;59.828;30.328;2022-08-06T02:17:28;20.90;99.90
51273;DHT22;37345;59.828;30.328;2022-08-06T02:24:52;20.90;99.90
51273;DHT22;37345;59.828;30.328;2022-08-06T02:27:19;21.10;99.90
51273;DHT22;37345;59.828;30.328;2022-08-06T02:29:46;21.20;99.90
51273;DHT22;37345;59.828;30.328;2022-08-06T02:32:13;21.60;99.90
51273;DHT22;37345;59.828;30.328;2022-08-06T02:34:40;21.80;99.90
51273;DHT22;37345;59.828;30.328;2022-08-06T02:37:15;21.70;99.90
51273;DHT22;37345;59.828;30.328;2022-08-06T02:39:49;21.90;99.90
51273;DHT22;37345;59.828;30.328;2022-08-06T02:43:00;21.90;99.90
51273;DHT22;37345;59.828;30.328;2022-08-06T02:50:39;22.40;99.90
51273;DHT22;37345;59.828;30.328;2022-08-06T02:53:11;22.50;99.90
51273;DHT22;37345;59.828;30.328;2022-08-06T02:55:43;22.70;99.90
51273;DHT22;37345;59.828;30.328;2022-08-06T02:58:13;22.80;99.90
51273;DHT22;37345;59.828;30.328;2022-08-06T03:05:36;22.60;99.90
51273;DHT22;37345;59.828;30.328;2022-08-06T03:08:03;22.60;99.90
51273;DHT22;37345;59.828;30.328;2022-08-06T03:10:33;23.00;99.90
51273;DHT22;37345;59.828;30.328;2022-08-06T03:13:01;23.20;99.90
51273;DHT22;37345;59.828;30.328;2022-08-06T03:15:29;23.50;99.90
51273;DHT22;37345;59.828;30.328;2022-08-06T03:17:55;23.50;99.90
51273;DHT22;37345;59.828;30.328;2022-08-06T03:20:26;23.80;99.90
51273;DHT22;37345;59.828;30.328;2022-08-06T03:22:56;23.90;99.90
51273;DHT22;37345;59.828;30.328;2022-08-06T03:25:25;24.00;99.90
51273;DHT22;37345;59.828;30.328;2022-08-06T03:27:52;24.10;99.90
51273;DHT22;37345;59.828;30.328;2022-08-06T03:30:20;24.50;99.90
51273;DHT22;37345;59.828;30.328;2022-08-06T03:32:47;24.40;99.90
51273;DHT22;37345;59.828;30.328;2022-08-06T03:35:16;24.50;99.90
51273;DHT22;37345;59.828;30.328;2022-08-06T03:37:43;24.50;99.90
51273;DHT22;37345;59.828;30.328;2022-08-06T03:40:10;24.10;99.90
51273;DHT22;37345;59.828;30.328;2022-08-06T03:42:39;24.40;99.90
51273;DHT22;37345;59.828;30.328;2022-08-06T03:47:42;24.50;99.90
51273;DHT22;37345;59.828;30.328;2022-08-06T03:50:15;24.80;99.90
51273;DHT22;37345;59.828;30.328;2022-08-06T03:52:53;24.90;99.90
51273;DHT22;37345;59.828;30.328;2022-08-06T03:55:23;24.60;99.90
51273;DHT22;37345;59.828;30.328;2022-08-06T03:57:52;24.00;99.90
51273;DHT22;37345;59.828;30.328;2022-08-06T04:00:22;26.10;99.90
51273;DHT22;37345;59.828;30.328;2022-08-06T04:10:11;26.20;99.90
51273;DHT22;37345;59.828;30.328;2022-08-06T04:12:38;25.80;99.90
51273;DHT22;37345;59.828;30.328;2022-08-06T04:15:05;26.40;99.90
51273;DHT22;37345;59.828;30.328;2022-08-06T04:17:32;26.40;99.90
51273;DHT22;37345;59.828;30.328;2022-08-06T04:19:59;26.30;99.90
51273;DHT22;37345;59.828;30.328;2022-08-06T04:22:26;26.00;99.90
51273;DHT22;37345;59.828;30.328;2022-08-06T04:24:51;26.50;99.90
51273;DHT22;37345;59.828;30.328;2022-08-06T04:27:19;26.80;99.90
51273;DHT22;37345;59.828;30.328;2022-08-06T04:29:46;27.00;99.90
51273;DHT22;37345;59.828;30.328;2022-08-06T04:32:15;27.20;99.90
51273;DHT22;37345;59.828;30.328;2022-08-06T04:37:09;26.70;99.90
51273;DHT22;37345;59.828;30.328;2022-08-06T04:39:35;27.10;99.90
51273;DHT22;37345;59.828;30.328;2022-08-06T04:42:01;27.00;99.90
51273;DHT22;37345;59.828;30.328;2022-08-06T04:44:28;27.10;99.90
51273;DHT22;37345;59.828;30.328;2022-08-06T04:46:56;27.40;99.90
51273;DHT22;37345;59.828;30.328;2022-08-06T04:49:24;27.90;99.90
51273;DHT22;37345;59.828;30.328;2022-08-06T04:51:50;27.60;99.90
51273;DHT22;37345;59.828;30.328;2022-08-06T04:54:16;27.90;99.90
51273;DHT22;37345;59.828;30.328;2022-08-06T04:56:43;27.90;99.90
51273;DHT22;37345;59.828;30.328;2022-08-06T04:59:09;27.60;99.90
51273;DHT22;37345;59.828;30.328;2022-08-06T05:01:37;28.10;99.90
51273;DHT22;37345;59.828;30.328;2022-08-06T05:04:04;28.50;99.90
51273;DHT22;37345;59.828;30.328;2022-08-06T05:09:20;28.90;99.90
51273;DHT22;37345;59.828;30.328;2022-08-06T05:11:55;29.30;99.90
51273;DHT22;37345;59.828;30.328;2022-08-06T05:14:30;28.70;99.90
51273;DHT22;37345;59.828;30.328;2022-08-06T05:16:59;28.10;99.90
51273;DHT22;37345;59.828;30.328;2022-08-06T05:19:34;28.10;99.90
51273;DHT22;37345;59.828;30.328;2022-08-06T05:22:06;28.40;99.90
51273;DHT22;37345;59.828;30.328;2022-08-06T05:24:34;29.30;99.90
51273;DHT22;37345;59.828;30.328;2022-08-06T05:27:01;29.50;99.90
51273;DHT22;37345;59.828;30.328;2022-08-06T05:29:27;28.60;99.90
51273;DHT22;37345;59.828;30.328;2022-08-06T05:31:58;28.90;99.90
51273;DHT22;37345;59.828;30.328;2022-08-06T05:34:24;28.70;99.90
51273;DHT22;37345;59.828;30.328;2022-08-06T05:36:50;28.60;99.90
51273;DHT22;37345;59.828;30.328;2022-08-06T05:39:18;28.40;99.90
51273;DHT22;37345;59.828;30.328;2022-08-06T05:41:46;28.40;99.90
51273;DHT22;37345;59.828;30.328;2022-08-06T05:44:14;28.30;99.90
51273;DHT22;37345;59.828;30.328;2022-08-06T05:46:57;28.30;99.90
51273;DHT22;37345;59.828;30.328;2022-08-06T05:52:17;28.20;99.90
51273;DHT22;37345;59.828;30.328;2022-08-06T05:54:52;28.30;99.90
51273;DHT22;37345;59.828;30.328;2022-08-06T05:57:33;28.80;99.90
51273;DHT22;37345;59.828;30.328;2022-08-06T06:00:12;29.60;99.90
51273;DHT22;37345;59.828;30.328;2022-08-06T06:02:43;28.50;99.90
51273;DHT22;37345;59.828;30.328;2022-08-06T06:05:10;29.70;99.90
51273;DHT22;37345;59.828;30.328;2022-08-06T06:07:37;29.40;99.90
51273;DHT22;37345;59.828;30.328;2022-08-06T06:10:06;29.40;99.90
51273;DHT22;37345;59.828;30.328;2022-08-06T06:12:33;28.80;99.90
51273;DHT22;37345;59.828;30.328;2022-08-06T06:15:01;29.00;99.90
51273;DHT22;37345;59.828;30.328;2022-08-06T06:23:11;29.40;99.90
51273;DHT22;37345;59.828;30.328;2022-08-06T06:29:04;30.20;99.90
51273;DHT22;37345;59.828;30.328;2022-08-06T06:31:44;30.20;99.90
51273;DHT22;37345;59.828;30.328;2022-08-06T06:40:02;29.90;99.90
51273;DHT22;37345;59.828;30.328;2022-08-06T06:42:37;30.00;99.90
51273;DHT22;37345;59.828;30.328;2022-08-06T06:45:21;30.10;99.90
51273;DHT22;37345;59.828;30.328;2022-08-06T06:48:02;30.00;99.90
51273;DHT22;37345;59.828;30.328;2022-08-06T06:51:07;30.30;99.90
51273;DHT22;37345;59.828;30.328;2022-08-06T06:53:42;30.60;99.90
51273;DHT22;37345;59.828;30.328;2022-08-06T06:56:11;30.50;99.90
51273;DHT22;37345;59.828;30.328;2022-08-06T06:59:16;30.70;99.90
51273;DHT22;37345;59.828;30.328;2022-08-06T07:01:47;31.10;99.90
51273;DHT22;37345;59.828;30.328;2022-08-06T07:04:16;30.70;99.90
51273;DHT22;37345;59.828;30.328;2022-08-06T07:06:44;30.80;99.90
51273;DHT22;37345;59.828;30.328;2022-08-06T07:09:17;30.70;99.90
51273;DHT22;37345;59.828;30.328;2022-08-06T07:11:44;30.70;99.90
51273;DHT22;37345;59.828;30.328;2022-08-06T07:14:12;30.70;99.90
51273;DHT22;37345;59.828;30.328;2022-08-06T07:16:40;30.90;99.90
51273;DHT22;37345;59.828;30.328;2022-08-06T07:19:08;30.70;99.90
51273;DHT22;37345;59.828;30.328;2022-08-06T07:21:36;30.80;99.90
51273;DHT22;37345;59.828;30.328;2022-08-06T07:24:06;31.50;99.90
51273;DHT22;37345;59.828;30.328;2022-08-06T07:26:33;31.70;99.90
51273;DHT22;37345;59.828;30.328;2022-08-06T07:29:00;31.70;99.90
51273;DHT22;37345;59.828;30.328;2022-08-06T07:31:27;31.60;99.90
51273;DHT22;37345;59.828;30.328;2022-08-06T07:33:53;31.40;99.90
51273;DHT22;37345;59.828;30.328;2022-08-06T07:36:23;31.20;99.90
51273;DHT22;37345;59.828;30.328;2022-08-06T07:38:59;31.70;99.90
51273;DHT22;37345;59.828;30.328;2022-08-06T07:41:27;31.30;99.90
51273;DHT22;37345;59.828;30.328;2022-08-06T07:43:57;31.20;99.90
51273;DHT22;37345;59.828;30.328;2022-08-06T07:46:29;31.00;99.90
51273;DHT22;37345;59.828;30.328;2022-08-06T07:49:01;31.40;99.90
51273;DHT22;37345;59.828;30.328;2022-08-06T07:51:34;31.40;99.90
51273;DHT22;37345;59.828;30.328;2022-08-06T07:54:07;31.50;99.90
51273;DHT22;37345;59.828;30.328;2022-08-06T07:56:35;31.90;99.90
51273;DHT22;37345;59.828;30.328;2022-08-06T07:59:05;31.30;99.90
51273;DHT22;37345;59.828;30.328;2022-08-06T08:01:33;30.90;99.90
51273;DHT22;37345;59.828;30.328;2022-08-06T08:04:06;31.40;99.90
51273;DHT22;37345;59.828;30.328;2022-08-06T08:06:52;32.00;99.90
51273;DHT22;37345;59.828;30.328;2022-08-06T08:09:19;31.90;99.90
51273;DHT22;37345;59.828;30.328;2022-08-06T08:11:48;32.80;99.90
51273;DHT22;37345;59.828;30.328;2022-08-06T08:14:20;32.40;99.90
51273;DHT22;37345;59.828;30.328;2022-08-06T08:16:47;31.70;99.90
51273;DHT22;37345;59.828;30.328;2022-08-06T08:19:38;32.20;99.90
51273;DHT22;37345;59.828;30.328;2022-08-06T08:22:09;32.00;99.90
51273;DHT22;37345;59.828;30.328;2022-08-06T08:24:37;31.70;99.90
51273;DHT22;37345;59.828;30.328;2022-08-06T08:27:04;32.00;99.90
51273;DHT22;37345;59.828;30.328;2022-08-06T08:29:34;32.40;99.90
51273;DHT22;37345;59.828;30.328;2022-08-06T08:32:00;32.40;99.90
51273;DHT22;37345;59.828;30.328;2022-08-06T08:34:26;31.80;99.90
51273;DHT22;37345;59.828;30.328;2022-08-06T08:36:52;31.70;99.90
51273;DHT22;37345;59.828;30.328;2022-08-06T08:39:18;31.80;99.90
51273;DHT22;37345;59.828;30.328;2022-08-06T08:41:52;31.70;99.90
51273;DHT22;37345;59.828;30.328;2022-08-06T08:44:25;32.70;99.90
51273;DHT22;37345;59.828;30.328;2022-08-06T08:46:56;31.50;99.90
51273;DHT22;37345;59.828;30.328;2022-08-06T08:49:34;32.00;99.90
51273;DHT22;37345;59.828;30.328;2022-08-06T08:52:02;31.00;99.90
51273;DHT22;37345;59.828;30.328;2022-08-06T08:54:31;31.40;99.90
51273;DHT22;37345;59.828;30.328;2022-08-06T08:56:59;32.40;99.90
51273;DHT22;37345;59.828;30.328;2022-08-06T08:59:29;31.70;99.90
51273;DHT22;37345;59.828;30.328;2022-08-06T09:01:55;31.80;99.90
51273;DHT22;37345;59.828;30.328;2022-08-06T09:04:21;31.50;99.90
51273;DHT22;37345;59.828;30.328;2022-08-06T09:06:48;31.70;99.90
51273;DHT22;37345;59.828;30.328;2022-08-06T09:09:14;32.10;99.90
51273;DHT22;37345;59.828;30.328;2022-08-06T09:11:40;31.90;99.90
51273;DHT22;37345;59.828;30.328;2022-08-06T09:14:09;31.70;99.90
51273;DHT22;37345;59.828;30.328;2022-08-06T09:16:37;32.10;99.90
51273;DHT22;37345;59.828;30.328;2022-08-06T09:19:05;32.10;99.90
51273;DHT22;37345;59.828;30.328;2022-08-06T09:21:32;31.80;99.90
51273;DHT22;37345;59.828;30.328;2022-08-06T09:23:59;31.90;99.90
51273;DHT22;37345;59.828;30.328;2022-08-06T09:26:25;31.40;99.90
51273;DHT22;37345;59.828;30.328;2022-08-06T09:28:51;31.00;99.90
51273;DHT22;37345;59.828;30.328;2022-08-06T09:31:19;31.70;99.90
51273;DHT22;37345;59.828;30.328;2022-08-06T09:34:03;32.20;99.90
51273;DHT22;37345;59.828;30.328;2022-08-06T09:36:41;32.20;99.90
51273;DHT22;37345;59.828;30.328;2022-08-06T09:39:07;31.50;99.90
51273;DHT22;37345;59.828;30.328;2022-08-06T09:41:33;32.00;99.90
51273;DHT22;37345;59.828;30.328;2022-08-06T09:44:10;31.70;99.90
51273;DHT22;37345;59.828;30.328;2022-08-06T09:46:44;31.90;99.90
51273;DHT22;37345;59.828;30.328;2022-08-06T09:49:11;31.50;99.90
51273;DHT22;37345;59.828;30.328;2022-08-06T09:51:38;31.70;99.90
51273;DHT22;37345;59.828;30.328;2022-08-06T09:54:11;31.30;99.90
51273;DHT22;37345;59.828;30.328;2022-08-06T09:56:56;31.30;99.90
51273;DHT22;37345;59.828;30.328;2022-08-06T09:59:25;30.70;99.90
51273;DHT22;37345;59.828;30.328;2022-08-06T10:01:51;30.50;99.90
51273;DHT22;37345;59.828;30.328;2022-08-06T10:04:27;30.50;99.90
51273;DHT22;37345;59.828;30.328;2022-08-06T10:06:59;30.90;99.90
51273;DHT22;37345;59.828;30.328;2022-08-06T10:09:27;30.40;99.90
51273;DHT22;37345;59.828;30.328;2022-08-06T10:11:54;30.90;99.90
51273;DHT22;37345;59.828;30.328;2022-08-06T10:17:04;30.80;99.90
51273;DHT22;37345;59.828;30.328;2022-08-06T10:19:31;30.60;99.90
51273;DHT22;37345;59.828;30.328;2022-08-06T10:24:31;30.90;99.90
51273;DHT22;37345;59.828;30.328;2022-08-06T10:26:58;30.80;99.90
51273;DHT22;37345;59.828;30.328;2022-08-06T10:29:27;30.40;99.90
51273;DHT22;37345;59.828;30.328;2022-08-06T10:31:53;30.40;99.90
51273;DHT22;37345;59.828;30.328;2022-08-06T10:34:24;30.50;99.90
51273;DHT22;37345;59.828;30.328;2022-08-06T10:37:04;30.90;99.90
51273;DHT22;37345;59.828;30.328;2022-08-06T10:39:34;30.40;99.90
51273;DHT22;37345;59.828;30.328;2022-08-06T10:42:03;30.10;99.90
51273;DHT22;37345;59.828;30.328;2022-08-06T10:49:25;29.90;99.90
51273;DHT22;37345;59.828;30.328;2022-08-06T10:51:52;29.90;99.90
51273;DHT22;37345;59.828;30.328;2022-08-06T10:54:24;30.10;99.90
51273;DHT22;37345;59.828;30.328;2022-08-06T10:56:50;30.70;99.90
51273;DHT22;37345;59.828;30.328;2022-08-06T10:59:16;30.10;99.90
51273;DHT22;37345;59.828;30.328;2022-08-06T11:02:28;30.20;99.90
51273;DHT22;37345;59.828;30.328;2022-08-06T11:15:53;29.90;99.90
51273;DHT22;37345;59.828;30.328;2022-08-06T11:18:20;29.80;99.90
51273;DHT22;37345;59.828;30.328;2022-08-06T11:20:48;29.70;99.90
51273;DHT22;37345;59.828;30.328;2022-08-06T11:25:45;30.00;99.90
51273;DHT22;37345;59.828;30.328;2022-08-06T11:28:11;30.10;99.90
51273;DHT22;37345;59.828;30.328;2022-08-06T11:30:43;30.10;99.90
51273;DHT22;37345;59.828;30.328;2022-08-06T11:33:20;30.10;99.90
51273;DHT22;37345;59.828;30.328;2022-08-06T11:41:27;29.80;99.90
51273;DHT22;37345;59.828;30.328;2022-08-06T11:46:26;29.50;99.90
51273;DHT22;37345;59.828;30.328;2022-08-06T11:54:16;28.90;99.90
51273;DHT22;37345;59.828;30.328;2022-08-06T11:59:29;28.80;99.90
51273;DHT22;37345;59.828;30.328;2022-08-06T12:01:55;28.80;99.90
51273;DHT22;37345;59.828;30.328;2022-08-06T12:04:45;28.90;99.90
51273;DHT22;37345;59.828;30.328;2022-08-06T12:07:30;28.90;99.90
51273;DHT22;37345;59.828;30.328;2022-08-06T12:12:43;28.80;99.90
51273;DHT22;37345;59.828;30.328;2022-08-06T12:23:02;28.70;99.90
51273;DHT22;37345;59.828;30.328;2022-08-06T12:25:36;28.80;99.90
51273;DHT22;37345;59.828;30.328;2022-08-06T12:28:22;28.80;99.90
51273;DHT22;37345;59.828;30.328;2022-08-06T12:30:54;28.70;99.90
51273;DHT22;37345;59.828;30.328;2022-08-06T12:33:21;27.60;99.90
51273;DHT22;37345;59.828;30.328;2022-08-06T12:35:50;28.40;99.90
51273;DHT22;37345;59.828;30.328;2022-08-06T12:38:17;28.10;99.90
51273;DHT22;37345;59.828;30.328;2022-08-06T12:41:02;27.90;99.90
51273;DHT22;37345;59.828;30.328;2022-08-06T12:43:30;27.90;99.90
51273;DHT22;37345;59.828;30.328;2022-08-06T12:46:02;28.10;99.90
51273;DHT22;37345;59.828;30.328;2022-08-06T12:48:29;27.90;99.90
51273;DHT22;37345;59.828;30.328;2022-08-06T13:05:49;19.70;99.90
51273;DHT22;37345;59.828;30.328;2022-08-06T13:08:16;19.60;99.90
51273;DHT22;37345;59.828;30.328;2022-08-06T13:10:48;20.00;99.90
51273;DHT22;37345;59.828;30.328;2022-08-06T13:13:15;20.10;99.90
51273;DHT22;37345;59.828;30.328;2022-08-06T13:15:41;20.30;99.90
51273;DHT22;37345;59.828;30.328;2022-08-06T13:18:16;20.00;99.90
51273;DHT22;37345;59.828;30.328;2022-08-06T13:20:45;20.00;99.90
51273;DHT22;37345;59.828;30.328;2022-08-06T13:23:13;20.20;99.90
51273;DHT22;37345;59.828;30.328;2022-08-06T13:25:47;20.30;99.90
51273;DHT22;37345;59.828;30.328;2022-08-06T13:28:15;20.30;99.90
51273;DHT22;37345;59.828;30.328;2022-08-06T13:30:43;19.90;99.90
51273;DHT22;37345;59.828;30.328;2022-08-06T13:33:18;20.00;99.90
51273;DHT22;37345;59.828;30.328;2022-08-06T13:35:45;19.90;99.90
51273;DHT22;37345;59.828;30.328;2022-08-06T13:38:14;19.80;99.90
51273;DHT22;37345;59.828;30.328;2022-08-06T13:40:50;19.80;99.90
51273;DHT22;37345;59.828;30.328;2022-08-06T13:43:16;19.80;99.90
51273;DHT22;37345;59.828;30.328;2022-08-06T13:45:42;19.80;99.90
51273;DHT22;37345;59.828;30.328;2022-08-06T13:48:10;19.80;99.90
51273;DHT22;37345;59.828;30.328;2022-08-06T13:50:41;19.80;99.90
51273;DHT22;37345;59.828;30.328;2022-08-06T13:53:09;19.80;99.90
51273;DHT22;37345;59.828;30.328;2022-08-06T13:55:36;20.30;99.90
51273;DHT22;37345;59.828;30.328;2022-08-06T13:58:03;20.10;99.90
51273;DHT22;37345;59.828;30.328;2022-08-06T14:00:30;20.10;99.90
51273;DHT22;37345;59.828;30.328;2022-08-06T14:02:56;20.10;99.90
51273;DHT22;37345;59.828;30.328;2022-08-06T14:05:23;20.00;99.90
51273;DHT22;37345;59.828;30.328;2022-08-06T14:07:50;20.10;99.90
51273;DHT22;37345;59.828;30.328;2022-08-06T14:10:16;20.40;99.90
51273;DHT22;37345;59.828;30.328;2022-08-06T14:12:43;20.10;99.90
51273;DHT22;37345;59.828;30.328;2022-08-06T14:15:30;20.50;99.90
51273;DHT22;37345;59.828;30.328;2022-08-06T14:17:56;20.20;99.90
51273;DHT22;37345;59.828;30.328;2022-08-06T14:20:22;20.40;99.90
51273;DHT22;37345;59.828;30.328;2022-08-06T14:22:48;20.10;99.90
51273;DHT22;37345;59.828;30.328;2022-08-06T14:25:14;20.20;99.90
51273;DHT22;37345;59.828;30.328;2022-08-06T14:27:40;20.30;99.90
51273;DHT22;37345;59.828;30.328;2022-08-06T14:30:06;20.20;99.90
51273;DHT22;37345;59.828;30.328;2022-08-06T14:32:32;20.10;99.90
51273;DHT22;37345;59.828;30.328;2022-08-06T14:34:58;20.10;99.90
51273;DHT22;37345;59.828;30.328;2022-08-06T14:37:24;20.20;99.90
51273;DHT22;37345;59.828;30.328;2022-08-06T14:39:50;20.50;99.90
51273;DHT22;37345;59.828;30.328;2022-08-06T14:42:16;20.40;99.90
51273;DHT22;37345;59.828;30.328;2022-08-06T14:45:00;20.30;99.90
51273;DHT22;37345;59.828;30.328;2022-08-06T14:47:34;19.80;99.90
51273;DHT22;37345;59.828;30.328;2022-08-06T14:50:01;19.50;99.90
51273;DHT22;37345;59.828;30.328;2022-08-06T14:52:27;19.20;99.90
51273;DHT22;37345;59.828;30.328;2022-08-06T14:54:53;19.20;99.90
51273;DHT22;37345;59.828;30.328;2022-08-06T14:57:20;19.00;99.90
51273;DHT22;37345;59.828;30.328;2022-08-06T14:59:46;18.90;99.90
51273;DHT22;37345;59.828;30.328;2022-08-06T15:02:13;19.30;99.90
51273;DHT22;37345;59.828;30.328;2022-08-06T15:04:39;19.30;99.90
51273;DHT22;37345;59.828;30.328;2022-08-06T15:07:05;19.20;99.90
51273;DHT22;37345;59.828;30.328;2022-08-06T15:09:32;19.20;99.90
51273;DHT22;37345;59.828;30.328;2022-08-06T15:11:59;18.90;99.90
51273;DHT22;37345;59.828;30.328;2022-08-06T15:14:26;19.40;99.90
51273;DHT22;37345;59.828;30.328;2022-08-06T15:16:53;19.20;99.90
51273;DHT22;37345;59.828;30.328;2022-08-06T15:19:19;19.00;99.90
51273;DHT22;37345;59.828;30.328;2022-08-06T15:21:48;19.30;99.90
51273;DHT22;37345;59.828;30.328;2022-08-06T15:24:14;19.00;99.90
51273;DHT22;37345;59.828;30.328;2022-08-06T15:26:40;19.10;99.90
51273;DHT22;37345;59.828;30.328;2022-08-06T15:29:06;18.90;99.90
51273;DHT22;37345;59.828;30.328;2022-08-06T15:31:32;19.00;99.90
51273;DHT22;37345;59.828;30.328;2022-08-06T15:33:59;18.70;99.90
51273;DHT22;37345;59.828;30.328;2022-08-06T15:36:25;18.70;99.90
51273;DHT22;37345;59.828;30.328;2022-08-06T15:38:51;18.60;99.90
51273;DHT22;37345;59.828;30.328;2022-08-06T15:41:20;18.60;99.90
51273;DHT22;37345;59.828;30.328;2022-08-06T15:43:52;18.60;99.90
51273;DHT22;37345;59.828;30.328;2022-08-06T15:46:18;18.40;99.90
51273;DHT22;37345;59.828;30.328;2022-08-06T15:48:45;18.50;99.90
51273;DHT22;37345;59.828;30.328;2022-08-06T15:51:12;18.60;99.90
51273;DHT22;37345;59.828;30.328;2022-08-06T15:53:38;18.70;99.90
51273;DHT22;37345;59.828;30.328;2022-08-06T15:56:04;18.70;99.90
51273;DHT22;37345;59.828;30.328;2022-08-06T15:58:30;18.80;99.90
51273;DHT22;37345;59.828;30.328;2022-08-06T16:00:56;18.90;99.90
51273;DHT22;37345;59.828;30.328;2022-08-06T16:03:22;18.60;99.90
51273;DHT22;37345;59.828;30.328;2022-08-06T16:05:49;18.60;99.90
51273;DHT22;37345;59.828;30.328;2022-08-06T16:08:16;18.50;99.90
51273;DHT22;37345;59.828;30.328;2022-08-06T16:10:46;18.80;99.90
51273;DHT22;37345;59.828;30.328;2022-08-06T16:13:14;18.50;99.90
51273;DHT22;37345;59.828;30.328;2022-08-06T16:15:48;18.60;99.90
51273;DHT22;37345;59.828;30.328;2022-08-06T16:18:20;18.40;99.90
51273;DHT22;37345;59.828;30.328;2022-08-06T16:20:46;18.40;99.90
51273;DHT22;37345;59.828;30.328;2022-08-06T16:23:14;18.40;99.90
51273;DHT22;37345;59.828;30.328;2022-08-06T16:25:40;18.10;99.90
51273;DHT22;37345;59.828;30.328;2022-08-06T16:28:07;18.10;99.90
51273;DHT22;37345;59.828;30.328;2022-08-06T16:30:34;18.00;99.90
51273;DHT22;37345;59.828;30.328;2022-08-06T16:33:00;17.70;99.90
51273;DHT22;37345;59.828;30.328;2022-08-06T16:35:27;17.90;99.90
51273;DHT22;37345;59.828;30.328;2022-08-06T16:37:53;17.60;99.90
51273;DHT22;37345;59.828;30.328;2022-08-06T16:40:20;17.40;99.90
51273;DHT22;37345;59.828;30.328;2022-08-06T16:42:46;17.90;99.90
51273;DHT22;37345;59.828;30.328;2022-08-06T16:45:13;17.30;99.90
51273;DHT22;37345;59.828;30.328;2022-08-06T16:47:40;17.10;99.90
51273;DHT22;37345;59.828;30.328;2022-08-06T16:50:06;17.50;99.90
51273;DHT22;37345;59.828;30.328;2022-08-06T16:52:32;17.30;99.90
51273;DHT22;37345;59.828;30.328;2022-08-06T16:54:58;17.00;99.90
51273;DHT22;37345;59.828;30.328;2022-08-06T16:57:24;16.80;99.90
51273;DHT22;37345;59.828;30.328;2022-08-06T16:59:50;18.80;99.90
51273;DHT22;37345;59.828;30.328;2022-08-06T17:02:15;16.80;99.90
51273;DHT22;37345;59.828;30.328;2022-08-06T17:05:00;16.90;99.90
51273;DHT22;37345;59.828;30.328;2022-08-06T17:07:27;16.80;99.90
51273;DHT22;37345;59.828;30.328;2022-08-06T17:09:53;16.50;99.90
51273;DHT22;37345;59.828;30.328;2022-08-06T17:12:19;16.90;99.90
51273;DHT22;37345;59.828;30.328;2022-08-06T17:14:45;16.90;99.90
51273;DHT22;37345;59.828;30.328;2022-08-06T17:17:10;17.10;99.90
51273;DHT22;37345;59.828;30.328;2022-08-06T17:19:37;16.90;99.90
51273;DHT22;37345;59.828;30.328;2022-08-06T17:22:03;16.50;99.90
51273;DHT22;37345;59.828;30.328;2022-08-06T17:24:32;16.60;99.90
51273;DHT22;37345;59.828;30.328;2022-08-06T17:27:01;16.80;99.90
51273;DHT22;37345;59.828;30.328;2022-08-06T17:29:27;16.90;99.90
51273;DHT22;37345;59.828;30.328;2022-08-06T17:31:53;16.70;99.90
51273;DHT22;37345;59.828;30.328;2022-08-06T17:34:21;16.70;99.90
51273;DHT22;37345;59.828;30.328;2022-08-06T17:36:46;16.80;99.90
51273;DHT22;37345;59.828;30.328;2022-08-06T17:39:12;17.70;99.90
51273;DHT22;37345;59.828;30.328;2022-08-06T17:41:38;16.70;99.90
51273;DHT22;37345;59.828;30.328;2022-08-06T17:44:04;16.60;99.90
51273;DHT22;37345;59.828;30.328;2022-08-06T17:46:30;16.70;99.90
51273;DHT22;37345;59.828;30.328;2022-08-06T17:48:57;16.90;99.90
51273;DHT22;37345;59.828;30.328;2022-08-06T17:51:23;16.80;99.90
51273;DHT22;37345;59.828;30.328;2022-08-06T17:53:50;16.80;99.90
51273;DHT22;37345;59.828;30.328;2022-08-06T17:56:16;16.70;99.90
51273;DHT22;37345;59.828;30.328;2022-08-06T17:58:41;16.80;99.90
51273;DHT22;37345;59.828;30.328;2022-08-06T18:01:10;16.90;99.90
51273;DHT22;37345;59.828;30.328;2022-08-06T18:03:36;16.80;99.90
51273;DHT22;37345;59.828;30.328;2022-08-06T18:06:02;16.90;99.90
51273;DHT22;37345;59.828;30.328;2022-08-06T18:08:28;16.80;99.90
51273;DHT22;37345;59.828;30.328;2022-08-06T18:10:54;16.80;99.90
51273;DHT22;37345;59.828;30.328;2022-08-06T18:13:20;16.90;99.90
51273;DHT22;37345;59.828;30.328;2022-08-06T18:15:46;16.90;99.90
51273;DHT22;37345;59.828;30.328;2022-08-06T18:18:12;16.90;99.90
51273;DHT22;37345;59.828;30.328;2022-08-06T18:20:38;16.90;99.90
51273;DHT22;37345;59.828;30.328;2022-08-06T18:23:06;16.80;99.90
51273;DHT22;37345;59.828;30.328;2022-08-06T18:25:32;16.80;99.90
51273;DHT22;37345;59.828;30.328;2022-08-06T18:27:58;16.80;99.90
51273;DHT22;37345;59.828;30.328;2022-08-06T18:30:25;16.80;99.90
51273;DHT22;37345;59.828;30.328;2022-08-06T18:32:51;16.80;99.90
51273;DHT22;37345;59.828;30.328;2022-08-06T18:35:17;16.70;99.90
51273;DHT22;37345;59.828;30.328;2022-08-06T18:37:44;16.80;99.90
51273;DHT22;37345;59.828;30.328;2022-08-06T18:40:10;16.70;99.90
51273;DHT22;37345;59.828;30.328;2022-08-06T18:42:37;16.60;99.90
51273;DHT22;37345;59.828;30.328;2022-08-06T18:45:05;16.70;99.90
51273;DHT22;37345;59.828;30.328;2022-08-06T18:47:31;16.70;99.90
51273;DHT22;37345;59.828;30.328;2022-08-06T18:49:57;16.80;99.90
51273;DHT22;37345;59.828;30.328;2022-08-06T18:52:27;16.70;99.90
51273;DHT22;37345;59.828;30.328;2022-08-06T18:54:57;16.80;99.90
51273;DHT22;37345;59.828;30.328;2022-08-06T18:57:26;16.70;99.90
51273;DHT22;37345;59.828;30.328;2022-08-06T18:59:56;16.70;99.90
51273;DHT22;37345;59.828;30.328;2022-08-06T19:02:22;16.70;99.90
51273;DHT22;37345;59.828;30.328;2022-08-06T19:04:48;16.50;99.90
51273;DHT22;37345;59.828;30.328;2022-08-06T19:07:14;16.70;99.90
51273;DHT22;37345;59.828;30.328;2022-08-06T19:09:41;16.80;99.90
51273;DHT22;37345;59.828;30.328;2022-08-06T19:12:10;16.70;99.90
51273;DHT22;37345;59.828;30.328;2022-08-06T19:14:37;16.80;99.90
51273;DHT22;37345;59.828;30.328;2022-08-06T19:17:04;16.80;99.90
51273;DHT22;37345;59.828;30.328;2022-08-06T19:19:30;16.80;99.90